createdAt,value
2023-03-11T00:04:10.747Z,1.77
2023-03-11T00:09:03.805Z,2.78
2023-03-11T00:14:03.533Z,1.23
2023-03-11T00:18:56.494Z,1.70
2023-03-11T00:23:49.953Z,1.55
2023-03-11T00:28:43.325Z,1.52
2023-03-11T00:33:36.462Z,1.52
2023-03-11T00:38:31.191Z,1.40
2023-03-11T00:43:24.276Z,1.70
2023-03-11T00:48:18.341Z,1.20
2023-03-11T00:53:12.662Z,1.13
2023-03-11T00:58:07.802Z,1.23
2023-03-11T01:03:06.336Z,1.30
2023-03-11T01:08:01.004Z,1.33
2023-03-11T01:12:54.153Z,1.42
2023-03-11T01:17:47.294Z,1.27
2023-03-11T01:22:39.114Z,1.02
2023-03-11T01:27:33.064Z,1.30
2023-03-11T01:32:26.125Z,1.00
2023-03-11T01:37:20.954Z,1.52
2023-03-11T01:42:14.008Z,1.10
2023-03-11T01:47:06.561Z,1.10
2023-03-11T01:52:07.918Z,1.10
2023-03-11T01:57:13.615Z,1.17
2023-03-11T02:02:24.028Z,1.02
2023-03-11T02:07:16.935Z,1.60
2023-03-11T02:12:14.322Z,1.33
2023-03-11T02:17:09.446Z,0.95
2023-03-11T02:22:04.334Z,1.05
2023-03-11T02:27:19.558Z,0.80
2023-03-11T02:32:15.220Z,1.17
2023-03-11T02:37:15.240Z,0.90
2023-03-11T02:42:26.740Z,0.82
2023-03-11T02:47:19.822Z,1.02
2023-03-11T02:52:13.089Z,0.80
2023-03-11T02:57:06.603Z,1.08
2023-03-11T03:01:59.604Z,0.95
2023-03-11T03:06:54.113Z,0.90
2023-03-11T03:11:46.951Z,0.95
2023-03-11T03:16:40.129Z,0.90
2023-03-11T03:21:33.945Z,0.90
2023-03-11T03:26:28.161Z,0.95
2023-03-11T03:31:21.335Z,0.73
2023-03-11T03:36:15.563Z,0.80
2023-03-11T03:41:16.503Z,0.80
2023-03-11T03:46:11.316Z,0.88
2023-03-11T03:51:11.288Z,0.60
2023-03-11T03:56:11.510Z,0.80
2023-03-11T04:01:08.856Z,0.73
2023-03-11T04:06:20.820Z,0.75
2023-03-11T04:11:18.708Z,0.70
2023-03-11T04:16:18.289Z,0.80
2023-03-11T04:21:11.739Z,0.60
2023-03-11T04:26:04.463Z,1.17
2023-03-11T04:30:56.742Z,0.70
2023-03-11T04:35:49.859Z,0.80
2023-03-11T04:40:43.942Z,0.90
2023-03-11T04:45:40.275Z,0.82
2023-03-11T04:50:33.711Z,0.60
2023-03-11T04:55:26.211Z,0.80
2023-03-11T05:00:23.139Z,0.60
2023-03-11T05:05:20.521Z,0.43
2023-03-11T05:10:13.559Z,0.90
2023-03-11T05:15:09.303Z,0.50
2023-03-11T05:20:03.410Z,0.77
2023-03-11T05:24:58.662Z,0.70
2023-03-11T05:29:52.326Z,0.80
2023-03-11T05:34:46.219Z,0.60
2023-03-11T05:39:41.349Z,0.60
2023-03-11T05:44:35.786Z,0.60
2023-03-11T05:49:28.549Z,0.70
2023-03-11T05:54:21.409Z,0.50
2023-03-11T05:59:18.019Z,0.70
2023-03-11T06:04:16.522Z,1.67
2023-03-11T06:09:14.330Z,2.25
2023-03-11T06:14:07.978Z,1.70
2023-03-11T06:19:01.154Z,2.17
2023-03-11T06:23:56.457Z,2.03
2023-03-11T06:28:52.644Z,1.75
2023-03-11T06:33:46.162Z,1.70
2023-03-11T06:38:40.087Z,1.50
2023-03-11T06:43:35.012Z,1.80
2023-03-11T06:48:29.137Z,1.95
2023-03-11T06:53:22.782Z,1.75
2023-03-11T06:58:15.682Z,2.03
2023-03-11T07:03:08.779Z,2.25
2023-03-11T07:08:02.393Z,2.10
2023-03-11T07:12:56.406Z,2.10
2023-03-11T07:17:50.262Z,2.15
2023-03-11T07:22:44.349Z,1.65
2023-03-11T07:27:37.719Z,1.85
2023-03-11T07:32:30.461Z,2.25
2023-03-11T07:37:23.970Z,2.03
2023-03-11T07:42:17.388Z,1.63
2023-03-11T07:47:12.947Z,2.00
2023-03-11T07:52:08.395Z,2.00
2023-03-11T07:57:01.772Z,1.58
2023-03-11T08:01:54.819Z,1.77
2023-03-11T08:06:49.079Z,1.65
2023-03-11T08:11:42.197Z,1.52
2023-03-11T08:16:35.916Z,1.48
2023-03-11T08:21:33.011Z,1.60
2023-03-11T08:26:25.907Z,1.83
2023-03-11T08:31:27.937Z,1.55
2023-03-11T08:36:21.333Z,1.73
2023-03-11T08:41:14.734Z,1.27
2023-03-11T08:46:07.684Z,1.33
2023-03-11T08:51:01.476Z,0.95
2023-03-11T08:55:54.759Z,1.13
2023-03-11T09:00:48.490Z,1.08
2023-03-11T09:05:41.886Z,1.23
2023-03-11T09:10:35.192Z,1.10
2023-03-11T09:15:28.196Z,1.13
2023-03-11T09:20:21.157Z,1.50
2023-03-11T09:25:14.186Z,1.77
2023-03-11T09:30:09.242Z,1.42
2023-03-11T09:35:02.335Z,1.25
2023-03-11T09:39:55.365Z,1.27
2023-03-11T09:45:16.658Z,1.70
2023-03-11T09:50:32.783Z,1.55
2023-03-11T09:55:37.840Z,1.27
2023-03-11T10:00:32.782Z,1.45
2023-03-11T10:05:29.389Z,1.00
2023-03-11T10:10:22.777Z,1.20
2023-03-11T10:15:51.074Z,1.17
2023-03-11T10:21:02.134Z,1.15
2023-03-11T10:26:07.593Z,1.00
2023-03-11T10:31:27.227Z,0.88
2023-03-11T10:36:27.693Z,1.02
2023-03-11T10:41:28.266Z,0.90
2023-03-11T10:46:25.194Z,1.02
2023-03-11T10:51:24.421Z,1.70
2023-03-11T10:56:37.072Z,0.90
2023-03-11T11:01:30.120Z,1.05
2023-03-11T11:06:29.637Z,0.68
2023-03-11T11:11:24.919Z,0.63
2023-03-11T11:16:22.114Z,0.60
2023-03-11T11:21:34.563Z,0.60
2023-03-11T11:26:27.686Z,0.50
2023-03-11T11:31:25.724Z,0.55
2023-03-11T11:36:18.848Z,0.85
2023-03-11T11:41:18.768Z,0.40
2023-03-11T11:46:21.036Z,0.50
2023-03-11T11:51:42.200Z,0.52
2023-03-11T11:56:35.424Z,0.38
2023-03-11T12:01:30.923Z,0.50
2023-03-11T12:06:37.879Z,0.38
2023-03-11T12:12:09.094Z,0.73
2023-03-11T12:17:07.883Z,1.60
2023-03-11T12:22:29.190Z,1.00
2023-03-11T12:27:27.064Z,1.05
2023-03-11T12:32:36.606Z,0.70
2023-03-11T12:37:30.202Z,0.63
2023-03-11T12:42:27.498Z,0.50
2023-03-11T12:47:22.848Z,0.45
2023-03-11T12:52:23.258Z,0.45
2023-03-11T12:57:22.273Z,0.43
2023-03-11T13:02:27.335Z,0.25
2023-03-11T13:07:22.806Z,0.20
2023-03-11T13:12:40.740Z,0.30
2023-03-11T13:17:33.561Z,0.20
2023-03-11T13:22:58.823Z,0.17
2023-03-11T13:27:56.079Z,0.20
2023-03-11T13:33:18.835Z,0.20
2023-03-11T13:38:23.092Z,0.20
2023-03-11T13:43:25.603Z,0.88
2023-03-11T13:48:23.901Z,0.20
2023-03-11T13:53:48.072Z,0.38
2023-03-11T13:58:41.032Z,0.63
2023-03-11T14:03:43.097Z,0.55
2023-03-11T14:08:39.978Z,0.40
2023-03-11T14:13:44.313Z,0.50
2023-03-11T14:18:45.045Z,0.30
2023-03-11T14:23:46.847Z,0.30
2023-03-11T14:28:45.202Z,0.77
2023-03-11T14:33:39.092Z,0.40
2023-03-11T14:38:33.656Z,0.40
2023-03-11T14:43:31.856Z,0.50
2023-03-11T14:48:24.475Z,0.30
2023-03-11T14:53:41.526Z,0.20
2023-03-11T14:58:42.717Z,0.40
2023-03-11T15:04:02.311Z,0.30
2023-03-11T15:09:28.759Z,0.88
2023-03-11T15:14:49.231Z,0.25
2023-03-11T15:19:45.906Z,0.30
2023-03-11T15:24:53.923Z,0.30
2023-03-11T15:29:59.300Z,0.50
2023-03-11T15:35:05.709Z,0.40
2023-03-11T15:39:58.533Z,0.30
2023-03-11T15:45:10.355Z,0.90
2023-03-11T15:50:26.331Z,1.40
2023-03-11T15:55:21.648Z,0.85
2023-03-11T16:00:19.629Z,1.40
2023-03-11T16:05:14.729Z,1.42
2023-03-11T16:10:09.334Z,1.17
2023-03-11T16:15:02.359Z,1.33
2023-03-11T16:19:55.243Z,1.83
2023-03-11T16:24:51.590Z,1.40
2023-03-11T16:29:44.345Z,1.05
2023-03-11T16:34:39.078Z,1.55
2023-03-11T16:39:32.134Z,0.88
2023-03-11T16:44:25.421Z,0.93
2023-03-11T16:49:18.277Z,1.20
2023-03-11T16:54:11.585Z,0.90
2023-03-11T16:59:05.171Z,0.90
2023-03-11T17:03:58.245Z,1.15
2023-03-11T17:08:51.826Z,1.13
2023-03-11T17:13:45.349Z,0.63
2023-03-11T17:18:37.703Z,0.85
2023-03-11T17:23:30.896Z,0.50
2023-03-11T17:28:24.311Z,0.77
2023-03-11T17:33:17.621Z,0.55
2023-03-11T17:38:10.901Z,0.65
2023-03-11T17:43:04.517Z,0.85
2023-03-11T17:47:56.966Z,0.63
2023-03-11T17:52:50.329Z,0.95
2023-03-11T17:57:45.879Z,0.80
2023-03-11T18:02:38.294Z,0.80
2023-03-11T18:07:32.613Z,0.88
2023-03-11T18:12:25.429Z,1.00
2023-03-11T18:17:19.588Z,0.70
2023-03-11T18:22:12.497Z,0.98
2023-03-11T18:27:06.280Z,1.08
2023-03-11T18:31:59.764Z,1.17
2023-03-11T18:36:52.831Z,1.00
2023-03-11T18:41:45.476Z,1.30
2023-03-11T18:46:39.066Z,0.90
2023-03-11T18:51:32.774Z,1.15
2023-03-11T18:56:26.034Z,1.00
2023-03-11T19:01:20.681Z,1.40
2023-03-11T19:06:13.816Z,1.50
2023-03-11T19:11:17.062Z,1.50
2023-03-11T19:16:12.213Z,1.30
2023-03-11T19:21:07.364Z,1.20
2023-03-11T19:26:03.481Z,1.90
2023-03-11T19:30:59.008Z,1.33
2023-03-11T19:36:13.920Z,2.45
2023-03-11T19:41:14.316Z,1.85
2023-03-11T19:46:09.948Z,1.55
2023-03-11T19:51:05.870Z,1.67
2023-03-11T19:55:58.639Z,1.40
2023-03-11T20:00:51.609Z,1.80
2023-03-11T20:05:47.176Z,1.60
2023-03-11T20:10:42.812Z,1.40
2023-03-11T20:15:36.096Z,1.67
2023-03-11T20:20:30.654Z,1.60
2023-03-11T20:25:25.704Z,2.03
2023-03-11T20:30:22.104Z,2.00
2023-03-11T20:35:15.491Z,2.38
2023-03-11T20:40:13.459Z,2.13
2023-03-11T20:45:07.344Z,2.22
2023-03-11T20:50:01.225Z,2.38
2023-03-11T20:54:53.470Z,1.80
2023-03-11T20:59:46.922Z,2.70
2023-03-11T21:04:44.839Z,2.53
2023-03-11T21:09:38.197Z,2.20
2023-03-11T21:14:30.859Z,2.08
2023-03-11T21:19:25.013Z,3.58
2023-03-11T21:24:18.140Z,1.80
2023-03-11T21:29:10.696Z,2.00
2023-03-11T21:34:43.304Z,2.17
2023-03-11T21:40:15.437Z,1.92
2023-03-11T21:45:08.695Z,2.40
2023-03-11T21:50:01.674Z,2.10
2023-03-11T21:55:34.072Z,1.83
2023-03-11T22:00:27.219Z,1.90
2023-03-11T22:05:20.175Z,1.98
2023-03-11T22:10:11.938Z,1.98
2023-03-11T22:15:07.042Z,1.85
2023-03-11T22:19:59.551Z,2.15
2023-03-11T22:24:53.036Z,2.00
2023-03-11T22:29:47.160Z,1.70
2023-03-11T22:34:40.094Z,1.95
2023-03-11T22:39:32.686Z,2.00
2023-03-11T22:44:27.050Z,1.95
2023-03-11T22:49:20.756Z,1.65
2023-03-11T22:54:13.922Z,2.08
2023-03-11T22:59:06.568Z,1.88
2023-03-11T23:03:59.738Z,2.50
2023-03-11T23:08:53.399Z,2.17
2023-03-11T23:13:47.680Z,2.00
2023-03-11T23:18:42.073Z,2.30
2023-03-11T23:23:35.458Z,1.70
2023-03-11T23:28:29.187Z,2.30
2023-03-11T23:33:21.038Z,1.83
2023-03-11T23:38:14.644Z,1.80
2023-03-11T23:43:08.487Z,1.58
2023-03-11T23:48:01.999Z,1.90
2023-03-11T23:52:54.964Z,2.10
2023-03-11T23:57:48.446Z,1.73
